sensor_id;sensor_type;location;lat;lon;timestamp;P1;durP1;ratioP1;P2;durP2;ratioP2
37323;SDS011;23205;49.986;18.950;2022-12-11T00:02:11;44.08;;;16.33;;
37323;SDS011;23205;49.986;18.950;2022-12-11T00:07:12;37.65;;;15.38;;
37323;SDS011;23205;49.986;18.950;2022-12-11T00:12:13;35.10;;;15.18;;
37323;SDS011;23205;49.986;18.950;2022-12-11T00:17:13;41.20;;;15.68;;
37323;SDS011;23205;49.986;18.950;2022-12-11T00:22:14;37.75;;;17.42;;
37323;SDS011;23205;49.986;18.950;2022-12-11T00:27:15;52.08;;;23.65;;
37323;SDS011;23205;49.986;18.950;2022-12-11T00:32:16;38.53;;;15.93;;
37323;SDS011;23205;49.986;18.950;2022-12-11T00:37:16;38.70;;;16.20;;
37323;SDS011;23205;49.986;18.950;2022-12-11T00:42:17;31.48;;;13.35;;
37323;SDS011;23205;49.986;18.950;2022-12-11T00:47:18;35.72;;;14.25;;
37323;SDS011;23205;49.986;18.950;2022-12-11T00:52:19;31.67;;;12.68;;
37323;SDS011;23205;49.986;18.950;2022-12-11T00:57:19;30.65;;;12.32;;
37323;SDS011;23205;49.986;18.950;2022-12-11T01:02:20;37.05;;;15.30;;
37323;SDS011;23205;49.986;18.950;2022-12-11T01:07:21;34.13;;;13.80;;
37323;SDS011;23205;49.986;18.950;2022-12-11T01:12:22;36.42;;;15.30;;
37323;SDS011;23205;49.986;18.950;2022-12-11T01:17:22;34.65;;;14.88;;
37323;SDS011;23205;49.986;18.950;2022-12-11T01:22:23;41.33;;;17.38;;
37323;SDS011;23205;49.986;18.950;2022-12-11T01:27:24;43.13;;;20.20;;
37323;SDS011;23205;49.986;18.950;2022-12-11T01:32:26;31.33;;;13.82;;
37323;SDS011;23205;49.986;18.950;2022-12-11T01:37:27;31.63;;;13.60;;
37323;SDS011;23205;49.986;18.950;2022-12-11T01:42:28;28.30;;;12.13;;
37323;SDS011;23205;49.986;18.950;2022-12-11T01:47:29;30.83;;;12.07;;
37323;SDS011;23205;49.986;18.950;2022-12-11T01:52:30;28.17;;;12.15;;
37323;SDS011;23205;49.986;18.950;2022-12-11T01:57:31;28.58;;;12.20;;
37323;SDS011;23205;49.986;18.950;2022-12-11T02:02:31;29.30;;;11.82;;
37323;SDS011;23205;49.986;18.950;2022-12-11T02:07:54;28.52;;;12.00;;
37323;SDS011;23205;49.986;18.950;2022-12-11T02:12:58;27.92;;;11.77;;
37323;SDS011;23205;49.986;18.950;2022-12-11T02:18:13;31.08;;;12.57;;
37323;SDS011;23205;49.986;18.950;2022-12-11T02:23:55;30.55;;;12.80;;
37323;SDS011;23205;49.986;18.950;2022-12-11T02:28:53;38.08;;;18.05;;
37323;SDS011;23205;49.986;18.950;2022-12-11T02:33:59;29.25;;;12.82;;
37323;SDS011;23205;49.986;18.950;2022-12-11T02:39:04;30.73;;;11.93;;
37323;SDS011;23205;49.986;18.950;2022-12-11T02:44:08;34.20;;;13.65;;
37323;SDS011;23205;49.986;18.950;2022-12-11T02:49:11;32.55;;;14.10;;
37323;SDS011;23205;49.986;18.950;2022-12-11T02:54:15;32.20;;;13.48;;
37323;SDS011;23205;49.986;18.950;2022-12-11T02:59:24;34.08;;;12.52;;
37323;SDS011;23205;49.986;18.950;2022-12-11T03:04:46;31.17;;;12.32;;
37323;SDS011;23205;49.986;18.950;2022-12-11T03:09:47;33.15;;;11.95;;
37323;SDS011;23205;49.986;18.950;2022-12-11T03:14:49;34.13;;;13.40;;
37323;SDS011;23205;49.986;18.950;2022-12-11T03:25:18;34.92;;;12.40;;
37323;SDS011;23205;49.986;18.950;2022-12-11T03:30:22;32.53;;;13.52;;
37323;SDS011;23205;49.986;18.950;2022-12-11T03:35:32;37.88;;;14.00;;
37323;SDS011;23205;49.986;18.950;2022-12-11T03:40:37;33.83;;;14.45;;
37323;SDS011;23205;49.986;18.950;2022-12-11T03:45:40;37.50;;;14.05;;
37323;SDS011;23205;49.986;18.950;2022-12-11T03:50:42;35.22;;;13.57;;
37323;SDS011;23205;49.986;18.950;2022-12-11T03:55:45;35.88;;;12.68;;
37323;SDS011;23205;49.986;18.950;2022-12-11T04:00:48;31.70;;;12.65;;
37323;SDS011;23205;49.986;18.950;2022-12-11T04:05:51;30.70;;;11.65;;
37323;SDS011;23205;49.986;18.950;2022-12-11T04:10:53;35.60;;;12.75;;
37323;SDS011;23205;49.986;18.950;2022-12-11T04:16:12;34.90;;;13.23;;
37323;SDS011;23205;49.986;18.950;2022-12-11T04:21:13;39.67;;;15.23;;
37323;SDS011;23205;49.986;18.950;2022-12-11T04:26:32;36.87;;;13.23;;
37323;SDS011;23205;49.986;18.950;2022-12-11T04:31:33;40.05;;;14.73;;
37323;SDS011;23205;49.986;18.950;2022-12-11T04:36:34;41.45;;;13.32;;
37323;SDS011;23205;49.986;18.950;2022-12-11T04:41:35;33.97;;;13.40;;
37323;SDS011;23205;49.986;18.950;2022-12-11T04:46:38;39.53;;;13.95;;
37323;SDS011;23205;49.986;18.950;2022-12-11T04:51:38;45.80;;;15.90;;
37323;SDS011;23205;49.986;18.950;2022-12-11T04:56:39;33.20;;;13.07;;
37323;SDS011;23205;49.986;18.950;2022-12-11T05:01:40;44.20;;;15.10;;
37323;SDS011;23205;49.986;18.950;2022-12-11T05:06:40;37.95;;;13.88;;
37323;SDS011;23205;49.986;18.950;2022-12-11T05:11:41;37.80;;;13.88;;
37323;SDS011;23205;49.986;18.950;2022-12-11T05:16:42;38.10;;;13.98;;
37323;SDS011;23205;49.986;18.950;2022-12-11T05:21:43;47.15;;;16.33;;
37323;SDS011;23205;49.986;18.950;2022-12-11T05:26:44;39.63;;;14.98;;
37323;SDS011;23205;49.986;18.950;2022-12-11T05:31:44;45.53;;;16.05;;
37323;SDS011;23205;49.986;18.950;2022-12-11T05:36:45;42.35;;;15.32;;
37323;SDS011;23205;49.986;18.950;2022-12-11T05:41:46;41.75;;;14.98;;
37323;SDS011;23205;49.986;18.950;2022-12-11T05:46:47;44.58;;;16.38;;
37323;SDS011;23205;49.986;18.950;2022-12-11T05:51:48;41.45;;;15.57;;
37323;SDS011;23205;49.986;18.950;2022-12-11T05:56:49;38.63;;;14.85;;
37323;SDS011;23205;49.986;18.950;2022-12-11T06:01:50;39.92;;;13.68;;
37323;SDS011;23205;49.986;18.950;2022-12-11T06:06:54;42.92;;;14.80;;
37323;SDS011;23205;49.986;18.950;2022-12-11T06:11:54;40.45;;;15.75;;
37323;SDS011;23205;49.986;18.950;2022-12-11T06:16:55;43.08;;;16.85;;
37323;SDS011;23205;49.986;18.950;2022-12-11T06:21:56;39.58;;;15.48;;
37323;SDS011;23205;49.986;18.950;2022-12-11T06:26:57;38.20;;;14.10;;
37323;SDS011;23205;49.986;18.950;2022-12-11T06:31:58;39.13;;;14.20;;
37323;SDS011;23205;49.986;18.950;2022-12-11T06:36:59;39.45;;;14.15;;
37323;SDS011;23205;49.986;18.950;2022-12-11T06:41:59;40.25;;;14.88;;
37323;SDS011;23205;49.986;18.950;2022-12-11T06:47:00;39.65;;;15.27;;
37323;SDS011;23205;49.986;18.950;2022-12-11T06:52:04;42.67;;;16.17;;
37323;SDS011;23205;49.986;18.950;2022-12-11T06:57:05;46.88;;;18.25;;
37323;SDS011;23205;49.986;18.950;2022-12-11T07:02:11;44.97;;;15.88;;
37323;SDS011;23205;49.986;18.950;2022-12-11T07:07:16;36.97;;;15.27;;
37323;SDS011;23205;49.986;18.950;2022-12-11T07:12:18;39.45;;;15.60;;
37323;SDS011;23205;49.986;18.950;2022-12-11T07:17:20;38.90;;;16.27;;
37323;SDS011;23205;49.986;18.950;2022-12-11T07:22:21;36.42;;;15.20;;
37323;SDS011;23205;49.986;18.950;2022-12-11T07:27:21;35.15;;;12.70;;
37323;SDS011;23205;49.986;18.950;2022-12-11T07:32:22;40.20;;;14.30;;
37323;SDS011;23205;49.986;18.950;2022-12-11T07:37:23;43.20;;;14.18;;
37323;SDS011;23205;49.986;18.950;2022-12-11T07:42:24;36.50;;;14.00;;
37323;SDS011;23205;49.986;18.950;2022-12-11T07:47:25;47.10;;;16.27;;
37323;SDS011;23205;49.986;18.950;2022-12-11T07:52:26;41.28;;;15.27;;
37323;SDS011;23205;49.986;18.950;2022-12-11T07:57:27;44.03;;;14.90;;
37323;SDS011;23205;49.986;18.950;2022-12-11T08:02:28;40.03;;;14.75;;
37323;SDS011;23205;49.986;18.950;2022-12-11T08:07:29;32.60;;;11.52;;
37323;SDS011;23205;49.986;18.950;2022-12-11T08:12:30;39.08;;;14.52;;
37323;SDS011;23205;49.986;18.950;2022-12-11T08:17:30;45.03;;;17.67;;
37323;SDS011;23205;49.986;18.950;2022-12-11T08:22:31;52.10;;;20.33;;
37323;SDS011;23205;49.986;18.950;2022-12-11T08:27:33;37.28;;;15.13;;
37323;SDS011;23205;49.986;18.950;2022-12-11T08:32:34;40.80;;;16.63;;
37323;SDS011;23205;49.986;18.950;2022-12-11T08:37:35;57.78;;;22.42;;
37323;SDS011;23205;49.986;18.950;2022-12-11T08:42:35;54.45;;;21.50;;
37323;SDS011;23205;49.986;18.950;2022-12-11T08:47:36;59.30;;;24.08;;
37323;SDS011;23205;49.986;18.950;2022-12-11T08:52:37;59.08;;;26.10;;
37323;SDS011;23205;49.986;18.950;2022-12-11T08:57:38;73.32;;;29.88;;
37323;SDS011;23205;49.986;18.950;2022-12-11T09:02:39;43.65;;;17.33;;
37323;SDS011;23205;49.986;18.950;2022-12-11T09:07:40;41.03;;;15.77;;
37323;SDS011;23205;49.986;18.950;2022-12-11T09:12:41;40.10;;;15.48;;
37323;SDS011;23205;49.986;18.950;2022-12-11T09:17:41;50.45;;;19.13;;
37323;SDS011;23205;49.986;18.950;2022-12-11T09:22:42;61.55;;;22.05;;
37323;SDS011;23205;49.986;18.950;2022-12-11T09:27:43;49.05;;;18.50;;
37323;SDS011;23205;49.986;18.950;2022-12-11T09:32:44;50.33;;;18.10;;
37323;SDS011;23205;49.986;18.950;2022-12-11T09:37:45;69.38;;;24.58;;
37323;SDS011;23205;49.986;18.950;2022-12-11T09:42:48;43.05;;;16.08;;
37323;SDS011;23205;49.986;18.950;2022-12-11T09:47:54;51.70;;;19.17;;
37323;SDS011;23205;49.986;18.950;2022-12-11T09:53:18;45.03;;;17.67;;
37323;SDS011;23205;49.986;18.950;2022-12-11T10:13:42;44.55;;;18.00;;
37323;SDS011;23205;49.986;18.950;2022-12-11T10:18:54;41.65;;;15.43;;
37323;SDS011;23205;49.986;18.950;2022-12-11T10:24:00;41.10;;;16.15;;
37323;SDS011;23205;49.986;18.950;2022-12-11T10:29:05;35.13;;;14.60;;
37323;SDS011;23205;49.986;18.950;2022-12-11T10:34:18;43.55;;;16.58;;
37323;SDS011;23205;49.986;18.950;2022-12-11T10:39:34;53.38;;;20.10;;
37323;SDS011;23205;49.986;18.950;2022-12-11T10:44:35;68.32;;;24.55;;
37323;SDS011;23205;49.986;18.950;2022-12-11T10:49:37;58.33;;;21.08;;
37323;SDS011;23205;49.986;18.950;2022-12-11T10:54:43;57.03;;;22.35;;
37323;SDS011;23205;49.986;18.950;2022-12-11T10:59:48;62.38;;;22.25;;
37323;SDS011;23205;49.986;18.950;2022-12-11T11:04:49;55.17;;;19.05;;
37323;SDS011;23205;49.986;18.950;2022-12-11T11:10:02;56.63;;;19.92;;
37323;SDS011;23205;49.986;18.950;2022-12-11T11:15:25;47.90;;;18.23;;
37323;SDS011;23205;49.986;18.950;2022-12-11T11:20:28;49.35;;;17.70;;
37323;SDS011;23205;49.986;18.950;2022-12-11T11:25:31;53.58;;;20.02;;
37323;SDS011;23205;49.986;18.950;2022-12-11T11:30:34;52.95;;;19.63;;
37323;SDS011;23205;49.986;18.950;2022-12-11T11:35:36;49.45;;;19.35;;
37323;SDS011;23205;49.986;18.950;2022-12-11T11:40:44;57.78;;;21.13;;
37323;SDS011;23205;49.986;18.950;2022-12-11T11:56:40;48.63;;;18.33;;
37323;SDS011;23205;49.986;18.950;2022-12-11T12:01:42;53.83;;;21.42;;
37323;SDS011;23205;49.986;18.950;2022-12-11T12:06:56;59.30;;;23.35;;
37323;SDS011;23205;49.986;18.950;2022-12-11T12:12:52;49.97;;;20.73;;
37323;SDS011;23205;49.986;18.950;2022-12-11T12:50:17;49.47;;;19.25;;
37323;SDS011;23205;49.986;18.950;2022-12-11T12:55:25;48.72;;;19.98;;
37323;SDS011;23205;49.986;18.950;2022-12-11T13:00:41;49.13;;;21.30;;
37323;SDS011;23205;49.986;18.950;2022-12-11T13:05:43;56.60;;;23.00;;
37323;SDS011;23205;49.986;18.950;2022-12-11T13:11:07;66.70;;;25.23;;
37323;SDS011;23205;49.986;18.950;2022-12-11T13:26:31;56.97;;;21.63;;
37323;SDS011;23205;49.986;18.950;2022-12-11T13:31:36;56.15;;;21.92;;
37323;SDS011;23205;49.986;18.950;2022-12-11T13:36:38;47.35;;;19.88;;
37323;SDS011;23205;49.986;18.950;2022-12-11T13:41:42;41.78;;;15.70;;
37323;SDS011;23205;49.986;18.950;2022-12-11T13:46:49;44.57;;;18.20;;
37323;SDS011;23205;49.986;18.950;2022-12-11T13:51:56;55.63;;;20.25;;
37323;SDS011;23205;49.986;18.950;2022-12-11T14:07:26;57.40;;;21.92;;
37323;SDS011;23205;49.986;18.950;2022-12-11T14:12:30;60.47;;;22.95;;
37323;SDS011;23205;49.986;18.950;2022-12-11T14:17:31;63.58;;;25.30;;
37323;SDS011;23205;49.986;18.950;2022-12-11T14:22:34;59.20;;;23.80;;
37323;SDS011;23205;49.986;18.950;2022-12-11T14:27:35;47.30;;;18.88;;
37323;SDS011;23205;49.986;18.950;2022-12-11T14:37:47;43.63;;;16.10;;
37323;SDS011;23205;49.986;18.950;2022-12-11T14:42:58;36.88;;;14.82;;
37323;SDS011;23205;49.986;18.950;2022-12-11T14:48:02;43.00;;;15.32;;
37323;SDS011;23205;49.986;18.950;2022-12-11T14:53:19;63.72;;;22.33;;
37323;SDS011;23205;49.986;18.950;2022-12-11T14:58:24;85.68;;;30.60;;
37323;SDS011;23205;49.986;18.950;2022-12-11T15:03:30;106.18;;;41.63;;
37323;SDS011;23205;49.986;18.950;2022-12-11T15:08:34;93.03;;;37.92;;
37323;SDS011;23205;49.986;18.950;2022-12-11T15:13:36;77.85;;;29.17;;
37323;SDS011;23205;49.986;18.950;2022-12-11T15:18:47;78.55;;;28.58;;
37323;SDS011;23205;49.986;18.950;2022-12-11T15:23:51;99.28;;;33.45;;
37323;SDS011;23205;49.986;18.950;2022-12-11T15:28:58;68.22;;;24.17;;
37323;SDS011;23205;49.986;18.950;2022-12-11T15:34:01;83.65;;;30.52;;
37323;SDS011;23205;49.986;18.950;2022-12-11T15:39:02;59.08;;;22.33;;
37323;SDS011;23205;49.986;18.950;2022-12-11T15:44:10;65.57;;;24.60;;
37323;SDS011;23205;49.986;18.950;2022-12-11T15:49:20;72.82;;;24.92;;
37323;SDS011;23205;49.986;18.950;2022-12-11T15:54:23;88.22;;;30.63;;
37323;SDS011;23205;49.986;18.950;2022-12-11T15:59:24;95.80;;;36.60;;
37323;SDS011;23205;49.986;18.950;2022-12-11T16:04:24;97.45;;;38.10;;
37323;SDS011;23205;49.986;18.950;2022-12-11T16:09:25;123.32;;;39.80;;
37323;SDS011;23205;49.986;18.950;2022-12-11T16:14:26;68.05;;;27.38;;
37323;SDS011;23205;49.986;18.950;2022-12-11T16:19:27;120.57;;;39.17;;
37323;SDS011;23205;49.986;18.950;2022-12-11T16:24:27;81.53;;;31.75;;
37323;SDS011;23205;49.986;18.950;2022-12-11T16:29:32;96.75;;;35.20;;
37323;SDS011;23205;49.986;18.950;2022-12-11T16:34:34;138.40;;;44.25;;
37323;SDS011;23205;49.986;18.950;2022-12-11T16:39:36;113.25;;;39.05;;
37323;SDS011;23205;49.986;18.950;2022-12-11T16:44:37;80.07;;;32.30;;
37323;SDS011;23205;49.986;18.950;2022-12-11T16:49:38;80.15;;;33.47;;
37323;SDS011;23205;49.986;18.950;2022-12-11T16:54:40;70.55;;;29.55;;
37323;SDS011;23205;49.986;18.950;2022-12-11T16:59:41;73.57;;;30.23;;
37323;SDS011;23205;49.986;18.950;2022-12-11T17:04:42;84.95;;;33.97;;
37323;SDS011;23205;49.986;18.950;2022-12-11T17:09:43;78.53;;;30.75;;
37323;SDS011;23205;49.986;18.950;2022-12-11T17:14:44;74.85;;;30.23;;
37323;SDS011;23205;49.986;18.950;2022-12-11T17:19:45;84.00;;;32.58;;
37323;SDS011;23205;49.986;18.950;2022-12-11T17:24:46;75.72;;;28.33;;
37323;SDS011;23205;49.986;18.950;2022-12-11T17:29:47;120.40;;;46.78;;
37323;SDS011;23205;49.986;18.950;2022-12-11T17:34:48;116.80;;;45.42;;
37323;SDS011;23205;49.986;18.950;2022-12-11T17:39:49;85.93;;;32.05;;
37323;SDS011;23205;49.986;18.950;2022-12-11T17:44:50;101.47;;;39.72;;
37323;SDS011;23205;49.986;18.950;2022-12-11T17:49:51;84.35;;;30.50;;
37323;SDS011;23205;49.986;18.950;2022-12-11T17:54:52;78.50;;;30.98;;
37323;SDS011;23205;49.986;18.950;2022-12-11T17:59:53;71.05;;;27.98;;
37323;SDS011;23205;49.986;18.950;2022-12-11T18:04:54;59.80;;;25.00;;
37323;SDS011;23205;49.986;18.950;2022-12-11T18:09:55;51.47;;;21.80;;
37323;SDS011;23205;49.986;18.950;2022-12-11T18:14:59;63.40;;;23.25;;
37323;SDS011;23205;49.986;18.950;2022-12-11T18:20:01;57.22;;;23.88;;
37323;SDS011;23205;49.986;18.950;2022-12-11T18:25:09;62.65;;;26.17;;
37323;SDS011;23205;49.986;18.950;2022-12-11T18:30:11;62.83;;;26.33;;
37323;SDS011;23205;49.986;18.950;2022-12-11T18:35:15;72.60;;;25.20;;
37323;SDS011;23205;49.986;18.950;2022-12-11T18:40:17;63.10;;;24.42;;
37323;SDS011;23205;49.986;18.950;2022-12-11T18:45:17;67.57;;;23.63;;
37323;SDS011;23205;49.986;18.950;2022-12-11T18:50:19;45.33;;;17.92;;
37323;SDS011;23205;49.986;18.950;2022-12-11T18:55:20;57.13;;;20.45;;
37323;SDS011;23205;49.986;18.950;2022-12-11T19:00:21;55.05;;;20.58;;
37323;SDS011;23205;49.986;18.950;2022-12-11T19:05:22;51.33;;;20.55;;
37323;SDS011;23205;49.986;18.950;2022-12-11T19:10:24;51.40;;;19.42;;
37323;SDS011;23205;49.986;18.950;2022-12-11T19:15:25;64.68;;;24.08;;
37323;SDS011;23205;49.986;18.950;2022-12-11T19:20:26;63.75;;;24.17;;
37323;SDS011;23205;49.986;18.950;2022-12-11T19:25:27;58.25;;;21.67;;
37323;SDS011;23205;49.986;18.950;2022-12-11T19:30:28;60.30;;;20.92;;
37323;SDS011;23205;49.986;18.950;2022-12-11T19:35:29;64.97;;;23.08;;
37323;SDS011;23205;49.986;18.950;2022-12-11T19:40:30;49.60;;;21.48;;
37323;SDS011;23205;49.986;18.950;2022-12-11T19:45:30;53.97;;;19.55;;
37323;SDS011;23205;49.986;18.950;2022-12-11T19:50:33;51.20;;;17.95;;
37323;SDS011;23205;49.986;18.950;2022-12-11T19:55:35;56.95;;;20.67;;
37323;SDS011;23205;49.986;18.950;2022-12-11T20:00:36;60.15;;;22.50;;
37323;SDS011;23205;49.986;18.950;2022-12-11T20:05:37;61.72;;;21.77;;
37323;SDS011;23205;49.986;18.950;2022-12-11T20:10:38;49.13;;;19.42;;
37323;SDS011;23205;49.986;18.950;2022-12-11T20:15:39;61.20;;;20.48;;
37323;SDS011;23205;49.986;18.950;2022-12-11T20:20:40;58.83;;;20.75;;
37323;SDS011;23205;49.986;18.950;2022-12-11T20:25:40;53.55;;;19.25;;
37323;SDS011;23205;49.986;18.950;2022-12-11T20:30:41;51.92;;;20.05;;
37323;SDS011;23205;49.986;18.950;2022-12-11T20:35:43;49.55;;;18.90;;
37323;SDS011;23205;49.986;18.950;2022-12-11T20:40:45;57.13;;;19.75;;
37323;SDS011;23205;49.986;18.950;2022-12-11T20:45:47;46.65;;;19.58;;
37323;SDS011;23205;49.986;18.950;2022-12-11T20:50:48;58.47;;;21.85;;
37323;SDS011;23205;49.986;18.950;2022-12-11T20:55:49;57.45;;;21.27;;
37323;SDS011;23205;49.986;18.950;2022-12-11T21:00:50;50.63;;;19.38;;
37323;SDS011;23205;49.986;18.950;2022-12-11T21:05:51;57.33;;;20.42;;
37323;SDS011;23205;49.986;18.950;2022-12-11T21:10:52;48.67;;;19.00;;
37323;SDS011;23205;49.986;18.950;2022-12-11T21:15:53;47.25;;;17.48;;
37323;SDS011;23205;49.986;18.950;2022-12-11T21:20:55;49.40;;;17.25;;
37323;SDS011;23205;49.986;18.950;2022-12-11T21:25:57;51.60;;;18.98;;
37323;SDS011;23205;49.986;18.950;2022-12-11T21:31:00;73.60;;;25.67;;
37323;SDS011;23205;49.986;18.950;2022-12-11T21:36:04;61.85;;;23.05;;
37323;SDS011;23205;49.986;18.950;2022-12-11T21:41:07;47.85;;;18.20;;
37323;SDS011;23205;49.986;18.950;2022-12-11T21:46:20;47.08;;;16.98;;
37323;SDS011;23205;49.986;18.950;2022-12-11T21:51:24;49.15;;;17.45;;
37323;SDS011;23205;49.986;18.950;2022-12-11T21:56:27;48.13;;;16.15;;
37323;SDS011;23205;49.986;18.950;2022-12-11T22:01:31;51.15;;;19.35;;
37323;SDS011;23205;49.986;18.950;2022-12-11T22:06:36;40.78;;;15.38;;
37323;SDS011;23205;49.986;18.950;2022-12-11T22:11:39;43.00;;;15.50;;
37323;SDS011;23205;49.986;18.950;2022-12-11T22:16:43;42.72;;;14.15;;
37323;SDS011;23205;49.986;18.950;2022-12-11T22:21:44;43.25;;;17.00;;
37323;SDS011;23205;49.986;18.950;2022-12-11T22:26:45;42.78;;;15.27;;
37323;SDS011;23205;49.986;18.950;2022-12-11T22:31:46;50.70;;;18.75;;
37323;SDS011;23205;49.986;18.950;2022-12-11T22:36:47;48.35;;;17.50;;
37323;SDS011;23205;49.986;18.950;2022-12-11T22:41:47;59.13;;;21.50;;
37323;SDS011;23205;49.986;18.950;2022-12-11T22:46:48;49.70;;;18.95;;
37323;SDS011;23205;49.986;18.950;2022-12-11T22:51:49;52.22;;;19.38;;
37323;SDS011;23205;49.986;18.950;2022-12-11T22:56:50;53.22;;;19.80;;
37323;SDS011;23205;49.986;18.950;2022-12-11T23:01:50;57.45;;;22.70;;
37323;SDS011;23205;49.986;18.950;2022-12-11T23:06:51;49.78;;;18.98;;
37323;SDS011;23205;49.986;18.950;2022-12-11T23:11:52;54.45;;;20.40;;
37323;SDS011;23205;49.986;18.950;2022-12-11T23:16:54;54.50;;;19.23;;
37323;SDS011;23205;49.986;18.950;2022-12-11T23:21:55;52.15;;;18.77;;
37323;SDS011;23205;49.986;18.950;2022-12-11T23:26:56;48.10;;;18.40;;
37323;SDS011;23205;49.986;18.950;2022-12-11T23:31:57;49.15;;;18.83;;
37323;SDS011;23205;49.986;18.950;2022-12-11T23:37:05;52.15;;;18.38;;
37323;SDS011;23205;49.986;18.950;2022-12-11T23:42:09;54.13;;;20.67;;
37323;SDS011;23205;49.986;18.950;2022-12-11T23:47:10;56.13;;;19.50;;
37323;SDS011;23205;49.986;18.950;2022-12-11T23:52:10;53.25;;;18.38;;
37323;SDS011;23205;49.986;18.950;2022-12-11T23:57:11;55.88;;;18.08;;
